createdAt,value
2019-01-14T00:00:41.036Z,4.09
2019-01-14T00:03:08.105Z,4.13
2019-01-14T00:05:35.124Z,4.07
2019-01-14T00:08:02.202Z,4.15
2019-01-14T00:10:29.251Z,4.20
2019-01-14T00:12:56.298Z,4.20
2019-01-14T00:15:23.464Z,4.20
2019-01-14T00:17:50.513Z,4.26
2019-01-14T00:20:17.658Z,4.31
2019-01-14T00:22:44.697Z,4.34
2019-01-14T00:25:11.837Z,4.32
2019-01-14T00:27:38.881Z,4.29
2019-01-14T00:30:08.894Z,4.30
2019-01-14T00:32:35.916Z,4.27
2019-01-14T00:35:03.076Z,4.30
2019-01-14T00:37:30.125Z,4.27
2019-01-14T00:39:57.156Z,4.18
2019-01-14T00:42:24.300Z,4.16
2019-01-14T00:44:51.330Z,4.13
2019-01-14T00:47:18.353Z,4.13
2019-01-14T00:49:45.418Z,4.11
2019-01-14T00:52:12.448Z,4.13
2019-01-14T00:54:39.488Z,4.10
2019-01-14T00:57:06.520Z,4.07
2019-01-14T00:59:33.578Z,4.02
2019-01-14T01:02:00.606Z,3.98
2019-01-14T01:04:27.652Z,4.02
2019-01-14T01:06:54.689Z,3.98
2019-01-14T01:09:21.791Z,3.92
2019-01-14T01:11:48.810Z,3.94
2019-01-14T01:14:15.872Z,3.87
2019-01-14T01:16:43.044Z,3.85
2019-01-14T01:19:10.060Z,3.81
2019-01-14T01:21:37.123Z,3.78
2019-01-14T01:24:04.272Z,3.74
2019-01-14T01:26:31.319Z,3.72
2019-01-14T01:28:58.366Z,3.71
2019-01-14T01:31:25.421Z,3.65
2019-01-14T01:33:52.449Z,3.65
2019-01-14T01:36:19.507Z,3.58
2019-01-14T01:38:46.535Z,3.52
2019-01-14T01:41:13.577Z,3.46
2019-01-14T01:43:40.624Z,3.44
2019-01-14T01:46:07.649Z,3.43
2019-01-14T01:48:34.693Z,3.42
2019-01-14T01:51:01.739Z,3.41
2019-01-14T01:53:28.802Z,3.39
2019-01-14T01:55:55.855Z,3.41
2019-01-14T01:58:22.920Z,3.39
2019-01-14T02:00:49.957Z,3.39
2019-01-14T02:03:16.987Z,3.38
2019-01-14T02:05:44.020Z,3.37
2019-01-14T02:08:11.039Z,3.38
2019-01-14T02:10:38.078Z,3.42
2019-01-14T02:13:05.119Z,3.41
2019-01-14T02:15:32.153Z,3.40
2019-01-14T02:17:59.183Z,3.37
2019-01-14T02:20:26.217Z,3.37
2019-01-14T02:22:53.226Z,3.38
2019-01-14T02:25:20.261Z,3.37
2019-01-14T02:27:47.296Z,3.39
2019-01-14T02:30:16.671Z,3.38
2019-01-14T02:32:43.701Z,3.37
2019-01-14T02:35:10.769Z,3.36
2019-01-14T02:37:37.790Z,3.35
2019-01-14T02:40:06.007Z,3.33
2019-01-14T02:42:33.048Z,3.30
2019-01-14T02:45:00.144Z,3.29
2019-01-14T02:47:27.203Z,3.32
2019-01-14T02:49:54.242Z,3.29
2019-01-14T02:52:21.282Z,3.30
2019-01-14T02:54:48.342Z,3.32
2019-01-14T02:57:15.403Z,3.33
2019-01-14T02:59:42.418Z,3.34
2019-01-14T03:02:09.464Z,3.33
2019-01-14T03:04:36.522Z,3.30
2019-01-14T03:07:03.780Z,3.33
2019-01-14T03:09:30.826Z,3.34
2019-01-14T03:11:57.860Z,3.34
2019-01-14T03:14:24.986Z,3.41
2019-01-14T03:16:52.036Z,3.42
2019-01-14T03:19:19.098Z,3.38
2019-01-14T03:21:46.130Z,3.42
2019-01-14T03:24:13.181Z,3.41
2019-01-14T03:26:40.228Z,3.38
2019-01-14T03:29:07.279Z,3.35
2019-01-14T03:31:34.315Z,3.32
2019-01-14T03:34:01.345Z,3.28
2019-01-14T03:36:28.357Z,3.20
2019-01-14T03:38:55.382Z,3.15
2019-01-14T03:41:22.447Z,3.11
2019-01-14T03:43:49.467Z,3.07
2019-01-14T03:46:16.537Z,3.02
2019-01-14T03:48:43.577Z,2.99
2019-01-14T03:51:10.648Z,2.97
2019-01-14T03:53:37.678Z,2.97
2019-01-14T03:56:04.747Z,2.98
2019-01-14T03:58:31.769Z,3.02
2019-01-14T04:00:58.803Z,3.07
2019-01-14T04:03:25.841Z,3.05
2019-01-14T04:05:52.871Z,3.04
2019-01-14T04:08:19.932Z,3.08
2019-01-14T04:10:46.991Z,3.11
2019-01-14T04:13:14.058Z,3.08
2019-01-14T04:15:41.297Z,3.06
2019-01-14T04:18:08.326Z,3.03
2019-01-14T04:20:35.358Z,3.03
2019-01-14T04:23:02.401Z,3.02
2019-01-14T04:25:29.439Z,2.99
2019-01-14T04:27:56.476Z,2.93
2019-01-14T04:30:23.645Z,2.88
2019-01-14T04:32:50.710Z,2.86
2019-01-14T04:35:18.436Z,2.84
2019-01-14T04:37:45.459Z,2.81
2019-01-14T04:40:12.520Z,2.78
2019-01-14T04:42:39.568Z,2.77
2019-01-14T04:45:07.580Z,2.75
2019-01-14T04:47:34.617Z,2.73
2019-01-14T04:50:01.695Z,2.71
2019-01-14T04:52:28.714Z,2.69
2019-01-14T04:54:55.770Z,2.70
2019-01-14T04:57:22.830Z,2.67
2019-01-14T04:59:49.871Z,2.68
2019-01-14T05:02:16.908Z,2.69
2019-01-14T05:04:43.943Z,2.70
2019-01-14T05:07:10.982Z,2.72
2019-01-14T05:09:38.006Z,2.71
2019-01-14T05:12:05.028Z,2.72
2019-01-14T05:14:32.076Z,2.71
2019-01-14T05:16:59.151Z,2.72
2019-01-14T05:19:26.224Z,2.72
2019-01-14T05:21:53.257Z,2.72
2019-01-14T05:24:20.340Z,2.73
2019-01-14T05:26:47.325Z,2.71
2019-01-14T05:29:14.376Z,2.69
2019-01-14T05:31:42.008Z,2.69
2019-01-14T05:34:09.074Z,2.65
2019-01-14T05:36:36.126Z,2.60
2019-01-14T05:39:06.631Z,2.55
2019-01-14T05:41:33.669Z,2.53
2019-01-14T05:44:00.723Z,2.52
2019-01-14T05:46:27.779Z,2.47
2019-01-14T05:48:54.842Z,2.43
2019-01-14T05:51:21.902Z,2.41
2019-01-14T05:53:48.974Z,2.42
2019-01-14T05:56:15.994Z,2.51
2019-01-14T05:58:43.035Z,2.59
2019-01-14T06:01:10.086Z,2.60
2019-01-14T06:03:37.135Z,2.61
2019-01-14T06:06:04.171Z,2.62
2019-01-14T06:08:31.212Z,2.64
2019-01-14T06:10:58.248Z,2.63
2019-01-14T06:13:25.283Z,2.62
2019-01-14T06:15:52.355Z,2.63
2019-01-14T06:18:19.419Z,2.60
2019-01-14T06:20:46.467Z,2.58
2019-01-14T06:23:13.510Z,2.55
2019-01-14T06:25:40.540Z,2.53
2019-01-14T06:28:07.569Z,2.52
2019-01-14T06:30:35.667Z,2.53
2019-01-14T06:33:02.776Z,2.52
2019-01-14T06:35:29.945Z,2.53
2019-01-14T06:37:56.987Z,2.53
2019-01-14T06:40:24.064Z,2.53
2019-01-14T06:42:51.117Z,2.53
2019-01-14T06:45:18.355Z,2.51
2019-01-14T06:47:45.474Z,2.49
2019-01-14T06:50:13.647Z,2.46
2019-01-14T06:52:40.700Z,2.46
2019-01-14T06:55:07.901Z,2.47
2019-01-14T06:57:34.950Z,2.52
2019-01-14T07:00:02.026Z,2.54
2019-01-14T07:02:29.102Z,2.59
2019-01-14T07:04:56.156Z,2.67
2019-01-14T07:07:23.203Z,2.74
2019-01-14T07:09:50.250Z,2.73
2019-01-14T07:12:17.298Z,2.72
2019-01-14T07:14:44.361Z,2.69
2019-01-14T07:17:11.423Z,2.68
2019-01-14T07:19:38.457Z,2.70
2019-01-14T07:22:05.503Z,2.75
2019-01-14T07:24:32.575Z,2.73
2019-01-14T07:26:59.614Z,2.73
2019-01-14T07:29:26.693Z,2.68
2019-01-14T07:31:53.739Z,2.62
2019-01-14T07:34:20.852Z,2.60
2019-01-14T07:36:47.873Z,2.59
2019-01-14T07:39:14.930Z,2.57
2019-01-14T07:41:41.968Z,2.57
2019-01-14T07:44:09.012Z,2.57
2019-01-14T07:46:36.064Z,2.59
2019-01-14T07:49:03.096Z,2.61
2019-01-14T07:51:30.148Z,2.64
2019-01-14T07:53:57.174Z,2.66
2019-01-14T07:56:24.518Z,2.67
2019-01-14T07:58:51.960Z,2.78
2019-01-14T08:01:19.032Z,2.82
2019-01-14T08:03:46.091Z,2.81
2019-01-14T08:06:13.140Z,2.80
2019-01-14T08:08:40.182Z,2.81
2019-01-14T08:11:07.246Z,2.84
2019-01-14T08:13:34.569Z,2.86
2019-01-14T08:16:01.610Z,2.86
2019-01-14T08:18:28.657Z,2.85
2019-01-14T08:20:55.689Z,2.88
2019-01-14T08:23:22.723Z,2.88
2019-01-14T08:25:49.791Z,2.90
2019-01-14T08:28:16.829Z,2.90
2019-01-14T08:30:43.911Z,2.88
2019-01-14T08:33:11.011Z,2.85
2019-01-14T08:35:38.069Z,2.76
2019-01-14T08:38:05.130Z,2.67
2019-01-14T08:40:32.187Z,2.63
2019-01-14T08:42:59.227Z,2.59
2019-01-14T08:45:26.298Z,2.60
2019-01-14T08:47:53.354Z,2.59
2019-01-14T08:50:20.829Z,2.63
2019-01-14T08:52:48.188Z,2.61
2019-01-14T08:55:15.355Z,2.62
2019-01-14T08:57:42.457Z,2.63
2019-01-14T09:00:12.357Z,2.63
2019-01-14T09:02:39.412Z,2.67
2019-01-14T09:05:06.540Z,2.68
2019-01-14T09:07:33.624Z,2.69
2019-01-14T09:10:00.699Z,2.68
2019-01-14T09:12:27.779Z,2.65
2019-01-14T09:14:54.812Z,2.64
2019-01-14T09:17:21.887Z,2.64
2019-01-14T09:19:48.935Z,2.64
2019-01-14T09:22:16.046Z,2.66
2019-01-14T09:24:43.091Z,2.66
2019-01-14T09:27:10.969Z,2.69
2019-01-14T09:29:38.006Z,2.69
2019-01-14T09:32:05.444Z,2.68
2019-01-14T09:34:32.689Z,2.68
2019-01-14T09:36:59.752Z,2.71
2019-01-14T09:39:26.803Z,2.70
2019-01-14T09:41:53.873Z,2.71
2019-01-14T09:44:20.919Z,2.76
2019-01-14T09:46:47.974Z,2.74
2019-01-14T09:49:15.036Z,2.79
2019-01-14T09:51:42.096Z,2.81
2019-01-14T09:54:09.149Z,2.87
2019-01-14T09:56:36.224Z,2.86
2019-01-14T09:59:03.384Z,2.86
2019-01-14T10:01:30.462Z,2.83
2019-01-14T10:03:57.514Z,2.81
2019-01-14T10:06:24.599Z,2.79
2019-01-14T10:08:51.666Z,2.76
2019-01-14T10:11:18.733Z,2.72
2019-01-14T10:13:45.777Z,2.68
2019-01-14T10:16:12.865Z,2.47
2019-01-14T10:18:39.981Z,2.28
2019-01-14T10:21:07.158Z,2.09
2019-01-14T10:23:34.223Z,1.98
2019-01-14T10:26:01.858Z,1.93
2019-01-14T10:28:28.960Z,1.93
2019-01-14T10:30:56.000Z,1.92
2019-01-14T10:33:23.084Z,1.89
2019-01-14T10:35:50.178Z,1.85
2019-01-14T10:38:17.231Z,1.79
2019-01-14T10:40:44.277Z,1.78
2019-01-14T10:43:11.351Z,1.79
2019-01-14T10:45:38.442Z,1.79
2019-01-14T10:48:05.702Z,1.82
2019-01-14T10:50:32.779Z,1.82
2019-01-14T10:52:59.839Z,1.83
2019-01-14T10:55:26.896Z,1.85
2019-01-14T10:57:53.944Z,1.85
2019-01-14T11:00:23.186Z,1.83
2019-01-14T11:02:50.256Z,1.86
2019-01-14T11:05:21.495Z,1.84
2019-01-14T11:07:48.564Z,1.86
2019-01-14T11:10:15.639Z,1.87
2019-01-14T11:12:42.804Z,1.87
2019-01-14T11:15:11.517Z,1.89
2019-01-14T11:17:38.579Z,1.90
2019-01-14T11:20:07.343Z,1.91
2019-01-14T11:22:34.445Z,1.91
2019-01-14T11:25:02.555Z,1.92
2019-01-14T11:27:29.669Z,1.93
2019-01-14T11:29:56.822Z,1.98
2019-01-14T11:32:23.881Z,1.99
2019-01-14T11:34:50.955Z,1.93
2019-01-14T11:37:18.036Z,1.88
2019-01-14T11:39:45.099Z,1.78
2019-01-14T11:42:12.178Z,1.68
2019-01-14T11:44:39.327Z,1.57
2019-01-14T11:47:06.381Z,1.50
2019-01-14T11:49:33.491Z,1.42
2019-01-14T11:52:00.583Z,1.39
2019-01-14T11:54:27.671Z,1.33
2019-01-14T11:56:54.711Z,1.28
2019-01-14T11:59:21.784Z,1.29
2019-01-14T12:01:48.893Z,1.31
2019-01-14T12:04:15.918Z,1.37
2019-01-14T12:06:43.007Z,1.45
2019-01-14T12:09:12.368Z,1.50
2019-01-14T12:11:39.182Z,1.55
2019-01-14T12:14:06.236Z,1.56
2019-01-14T12:16:33.322Z,1.53
2019-01-14T12:19:00.382Z,1.50
2019-01-14T12:21:27.496Z,1.50
2019-01-14T12:23:54.566Z,1.57
2019-01-14T12:26:21.632Z,1.63
2019-01-14T12:28:48.721Z,1.66
2019-01-14T12:31:15.792Z,1.70
2019-01-14T12:33:42.904Z,1.76
2019-01-14T12:36:09.976Z,1.78
2019-01-14T12:38:37.061Z,1.78
2019-01-14T12:41:04.158Z,1.81
2019-01-14T12:43:31.215Z,1.83
2019-01-14T12:45:58.336Z,1.89
2019-01-14T12:48:25.422Z,1.96
2019-01-14T12:50:52.508Z,2.05
2019-01-14T12:53:19.566Z,2.17
2019-01-14T12:55:46.638Z,2.20
2019-01-14T12:58:13.681Z,2.22
2019-01-14T13:00:40.752Z,2.24
2019-01-14T13:03:07.835Z,2.23
2019-01-14T13:05:34.882Z,2.23
2019-01-14T13:08:01.978Z,2.26
2019-01-14T13:10:29.057Z,2.24
2019-01-14T13:12:56.105Z,2.25
2019-01-14T13:15:24.687Z,2.27
2019-01-14T13:17:52.034Z,2.25
2019-01-14T13:20:19.104Z,2.24
2019-01-14T13:22:46.193Z,2.19
2019-01-14T13:25:13.384Z,2.12
2019-01-14T13:27:40.727Z,2.06
2019-01-14T13:30:17.179Z,2.07
2019-01-14T13:32:44.238Z,2.08
2019-01-14T13:35:11.363Z,1.93
2019-01-14T13:37:38.429Z,1.92
2019-01-14T13:40:06.240Z,1.86
2019-01-14T13:42:33.311Z,1.82
2019-01-14T13:45:00.394Z,1.70
2019-01-14T13:47:27.455Z,1.56
2019-01-14T13:49:54.501Z,1.50
2019-01-14T13:52:21.609Z,1.47
2019-01-14T13:54:48.933Z,1.44
2019-01-14T13:57:16.037Z,1.38
2019-01-14T13:59:43.137Z,1.30
2019-01-14T14:02:10.524Z,1.29
2019-01-14T14:04:37.674Z,1.33
2019-01-14T14:07:04.747Z,1.30
2019-01-14T14:09:31.787Z,1.30
2019-01-14T14:11:58.859Z,1.30
2019-01-14T14:14:25.948Z,1.30
2019-01-14T14:16:53.007Z,1.26
2019-01-14T14:19:20.066Z,1.21
2019-01-14T14:21:47.137Z,1.21
2019-01-14T14:24:14.211Z,1.17
2019-01-14T14:26:41.245Z,1.18
2019-01-14T14:29:08.312Z,1.17
2019-01-14T14:31:35.377Z,1.20
2019-01-14T14:34:02.420Z,1.17
2019-01-14T14:36:29.513Z,1.15
2019-01-14T14:38:56.557Z,1.11
2019-01-14T14:41:23.620Z,1.10
2019-01-14T14:43:50.702Z,1.12
2019-01-14T14:46:17.770Z,1.11
2019-01-14T14:48:44.858Z,1.12
2019-01-14T14:51:11.916Z,1.08
2019-01-14T14:53:39.009Z,1.04
2019-01-14T14:56:06.091Z,1.02
2019-01-14T14:58:33.161Z,0.99
2019-01-14T15:01:00.249Z,0.97
2019-01-14T15:03:27.315Z,0.90
2019-01-14T15:05:54.374Z,0.88
2019-01-14T15:08:21.441Z,0.88
2019-01-14T15:10:48.504Z,0.89
2019-01-14T15:13:15.557Z,0.88
2019-01-14T15:15:42.655Z,0.92
2019-01-14T15:18:09.690Z,0.89
2019-01-14T15:20:36.755Z,0.90
2019-01-14T15:23:04.010Z,0.93
2019-01-14T15:25:31.043Z,0.94
2019-01-14T15:27:58.103Z,0.93
2019-01-14T15:30:30.602Z,0.93
2019-01-14T15:32:57.673Z,0.93
2019-01-14T15:35:24.741Z,0.94
2019-01-14T15:37:51.806Z,0.95
2019-01-14T15:40:18.952Z,0.94
2019-01-14T15:42:46.010Z,0.95
2019-01-14T15:45:14.543Z,0.95
2019-01-14T15:47:41.598Z,0.97
2019-01-14T15:50:09.076Z,0.96
2019-01-14T15:52:36.141Z,0.96
2019-01-14T15:55:03.945Z,0.97
2019-01-14T15:57:31.014Z,0.98
2019-01-14T15:59:58.097Z,1.01
2019-01-14T16:02:25.206Z,1.02
2019-01-14T16:04:52.271Z,1.04
2019-01-14T16:07:19.323Z,1.06
2019-01-14T16:09:46.681Z,1.11
2019-01-14T16:12:13.759Z,1.12
2019-01-14T16:22:01.922Z,1.11
2019-01-14T16:24:30.832Z,1.13
2019-01-14T16:27:02.771Z,1.11
2019-01-14T16:29:30.329Z,1.13
2019-01-14T16:31:57.450Z,1.09
2019-01-14T16:34:24.582Z,1.13
2019-01-14T16:36:51.691Z,1.19
2019-01-14T16:39:18.854Z,1.15
2019-01-14T16:41:45.948Z,1.14
2019-01-14T16:44:13.065Z,1.15
2019-01-14T16:46:40.160Z,1.15
2019-01-14T16:49:07.269Z,1.15
2019-01-14T16:51:34.362Z,1.16
2019-01-14T16:54:01.470Z,1.20
2019-01-14T16:56:28.565Z,1.25
2019-01-14T16:58:55.721Z,1.23
2019-01-14T17:01:22.844Z,1.21
2019-01-14T17:03:50.251Z,1.20
2019-01-14T17:06:19.448Z,1.17
2019-01-14T17:08:46.546Z,1.18
2019-01-14T17:11:13.662Z,1.20
2019-01-14T17:13:40.776Z,1.20
2019-01-14T17:16:07.906Z,1.21
2019-01-14T17:18:35.092Z,1.23
2019-01-14T17:21:02.220Z,1.18
2019-01-14T17:23:29.335Z,1.17
2019-01-14T17:25:56.471Z,1.15
2019-01-14T17:28:23.605Z,1.14
2019-01-14T17:30:50.860Z,1.13
2019-01-14T17:33:18.339Z,1.12
2019-01-14T17:35:45.466Z,1.09
2019-01-14T17:38:12.615Z,1.07
2019-01-14T17:40:39.772Z,1.12
2019-01-14T17:43:06.928Z,1.09
2019-01-14T17:45:34.040Z,1.04
2019-01-14T17:48:01.452Z,1.01
2019-01-14T17:50:28.688Z,1.01
2019-01-14T17:52:55.845Z,1.00
2019-01-14T17:55:23.031Z,1.02
2019-01-14T17:57:50.147Z,0.98
2019-01-14T18:00:22.380Z,0.96
2019-01-14T18:02:49.568Z,0.96
2019-01-14T18:05:16.746Z,0.95
2019-01-14T18:07:43.852Z,0.93
2019-01-14T18:10:12.556Z,0.89
2019-01-14T18:12:39.652Z,0.88
2019-01-14T18:15:07.394Z,0.86
2019-01-14T18:17:35.898Z,0.84
2019-01-14T18:20:05.223Z,0.83
2019-01-14T18:22:32.380Z,0.87
2019-01-14T18:25:01.724Z,0.84
2019-01-14T18:27:28.898Z,0.82
2019-01-14T18:29:56.055Z,0.83
2019-01-14T18:32:23.554Z,0.84
2019-01-14T18:34:50.976Z,0.84
2019-01-14T18:37:18.456Z,0.83
2019-01-14T18:39:46.323Z,0.84
2019-01-14T18:42:13.758Z,0.83
2019-01-14T18:44:40.995Z,0.82
2019-01-14T18:47:08.639Z,0.82
2019-01-14T18:49:36.158Z,0.84
2019-01-14T18:52:03.539Z,0.87
2019-01-14T18:54:31.042Z,0.87
2019-01-14T18:57:00.556Z,0.89
2019-01-14T18:59:28.251Z,0.88
2019-01-14T19:01:55.701Z,0.90
2019-01-14T19:04:23.396Z,0.91
2019-01-14T19:06:50.680Z,0.93
2019-01-14T19:09:17.955Z,0.91
2019-01-14T19:11:45.525Z,0.91
2019-01-14T19:14:13.158Z,0.89
2019-01-14T19:16:40.586Z,0.94
2019-01-14T19:19:08.326Z,1.01
2019-01-14T19:21:36.418Z,1.10
2019-01-14T19:24:04.609Z,1.07
2019-01-14T19:26:33.043Z,1.06
2019-01-14T19:29:00.441Z,1.04
2019-01-14T19:31:29.378Z,1.01
2019-01-14T19:33:58.868Z,1.02
2019-01-14T19:36:26.419Z,1.00
2019-01-14T19:38:54.774Z,0.96
2019-01-14T19:41:22.620Z,0.92
2019-01-14T19:43:53.157Z,0.91
2019-01-14T19:46:21.524Z,0.90
2019-01-14T19:48:51.655Z,0.90
2019-01-14T19:51:20.984Z,0.91
2019-01-14T19:53:48.931Z,0.86
2019-01-14T19:56:17.495Z,0.85
2019-01-14T19:58:45.147Z,0.86
2019-01-14T20:01:13.796Z,0.86
2019-01-14T20:03:41.350Z,0.86
2019-01-14T20:06:12.199Z,0.85
2019-01-14T20:08:40.627Z,0.85
2019-01-14T20:11:10.376Z,0.87
2019-01-14T20:13:39.302Z,0.86
2019-01-14T20:16:08.081Z,0.87
2019-01-14T20:18:36.385Z,0.87
2019-01-14T20:21:04.093Z,0.85
2019-01-14T20:23:32.222Z,0.84
2019-01-14T20:26:00.237Z,0.84
2019-01-14T20:28:28.392Z,0.85
2019-01-14T20:30:56.435Z,0.93
2019-01-14T20:33:24.259Z,0.89
2019-01-14T20:35:52.054Z,0.89
2019-01-14T20:38:23.861Z,0.89
2019-01-14T20:40:53.488Z,0.87
2019-01-14T20:43:24.855Z,0.85
2019-01-14T20:45:52.408Z,0.85
2019-01-14T20:48:21.659Z,0.84
2019-01-14T20:50:49.928Z,0.83
2019-01-14T20:53:17.821Z,0.84
2019-01-14T20:55:45.308Z,0.82
2019-01-14T20:58:13.789Z,0.82
2019-01-14T21:00:41.858Z,0.82
2019-01-14T21:03:11.456Z,0.80
2019-01-14T21:05:40.433Z,0.78
2019-01-14T21:08:07.915Z,0.78
2019-01-14T21:10:35.443Z,0.82
2019-01-14T21:13:03.767Z,0.81
2019-01-14T21:15:31.046Z,0.80
2019-01-14T21:17:58.288Z,0.82
2019-01-14T21:20:25.460Z,0.80
2019-01-14T21:22:53.783Z,0.81
2019-01-14T21:25:21.407Z,0.80
2019-01-14T21:27:48.883Z,0.79
2019-01-14T21:30:18.017Z,0.77
2019-01-14T21:32:45.102Z,0.72
2019-01-14T21:35:12.182Z,0.69
2019-01-14T21:37:39.271Z,0.65
2019-01-14T21:40:07.682Z,0.61
2019-01-14T21:42:35.097Z,0.61
2019-01-14T21:45:02.225Z,0.54
2019-01-14T21:47:32.798Z,0.45
2019-01-14T21:50:00.810Z,0.33
2019-01-14T21:52:27.884Z,0.24
2019-01-14T21:54:54.982Z,0.05
2019-01-14T21:57:22.079Z,-0.20
2019-01-14T21:59:51.332Z,-0.30
2019-01-14T22:02:18.719Z,-0.33
2019-01-14T22:04:45.773Z,-0.37
2019-01-14T22:07:12.871Z,-0.43
2019-01-14T22:09:39.957Z,-0.46
2019-01-14T22:12:07.008Z,-0.54
2019-01-14T22:14:34.050Z,-0.51
2019-01-14T22:17:01.154Z,-0.52
2019-01-14T22:19:28.202Z,-0.51
2019-01-14T22:21:55.295Z,-0.45
2019-01-14T22:24:22.344Z,-0.42
2019-01-14T22:26:49.386Z,-0.37
2019-01-14T22:29:16.447Z,-0.33
2019-01-14T22:31:43.490Z,-0.29
2019-01-14T22:34:10.536Z,-0.26
2019-01-14T22:36:37.566Z,-0.19
2019-01-14T22:39:06.666Z,-0.07
2019-01-14T22:41:33.690Z,0.03
2019-01-14T22:44:00.747Z,0.03
2019-01-14T22:46:27.799Z,0.10
2019-01-14T22:48:54.873Z,0.08
2019-01-14T22:51:21.937Z,0.00
2019-01-14T22:53:49.006Z,0.00
2019-01-14T22:56:16.061Z,-0.05
2019-01-14T22:58:43.117Z,-0.08
2019-01-14T23:01:19.321Z,-0.10
2019-01-14T23:03:48.361Z,-0.12
2019-01-14T23:06:15.451Z,-0.14
2019-01-14T23:08:42.892Z,-0.17
2019-01-14T23:11:09.939Z,-0.21
2019-01-14T23:13:37.002Z,-0.24
2019-01-14T23:16:04.085Z,-0.21
2019-01-14T23:18:31.146Z,-0.17
2019-01-14T23:20:58.209Z,-0.19
2019-01-14T23:23:25.299Z,-0.18
2019-01-14T23:25:52.361Z,-0.20
2019-01-14T23:28:19.427Z,-0.19
2019-01-14T23:30:46.495Z,-0.21
2019-01-14T23:33:13.579Z,-0.19
2019-01-14T23:35:40.645Z,-0.19
2019-01-14T23:38:07.693Z,-0.20
2019-01-14T23:40:34.749Z,-0.19
2019-01-14T23:43:01.821Z,-0.20
2019-01-14T23:45:28.921Z,-0.17
2019-01-14T23:47:55.971Z,-0.23
2019-01-14T23:50:23.040Z,-0.25
2019-01-14T23:52:50.125Z,-0.24
2019-01-14T23:55:17.182Z,-0.22
2019-01-14T23:57:44.234Z,-0.17
